Time;durP1;ratioP1;P1;durP2;ratioP2;P2;SDS_P1;SDS_P2;PMS_P1;PMS_P2;Temp;Humidity;BMP_temperature;BMP_pressure;BME280_temperature;BME280_humidity;BME280_pressure;Samples;Min_cycle;Max_cycle;Signal;HPM_P1;HPM_P2
2021/05/16 00:00:13;;;;;;;2.22;0.73;;;;;;;;;;5017531;28;20096;-70
2021/05/16 00:02:39;;;;;;;2.03;0.70;;;;;;;;;;5038040;28;20122;-69
2021/05/16 00:05:07;;;;;;;4.22;0.77;;;;;;;;;;5053840;28;20083;-69
2021/05/16 00:07:33;;;;;;;3.38;1.08;;;;;;;;;;5054623;28;20045;-70
2021/05/16 00:10:00;;;;;;;2.13;0.60;;;;;;;;;;5054712;28;20077;-70
2021/05/16 00:12:26;;;;;;;3.33;0.60;;;;;;;;;;5053650;28;20048;-70
2021/05/16 00:14:53;;;;;;;0.95;0.40;;;;;;;;;;5054719;28;20053;-69
2021/05/16 00:17:20;;;;;;;1.67;0.77;;;;;;;;;;5054672;28;20053;-70
2021/05/16 00:19:47;;;;;;;2.25;0.57;;;;;;;;;;5053030;28;20106;-70
2021/05/16 00:22:14;;;;;;;1.23;0.60;;;;;;;;;;5035832;28;20053;-69
2021/05/16 00:24:41;;;;;;;2.35;0.98;;;;;;;;;;5033263;28;20737;-70
2021/05/16 00:27:07;;;;;;;1.65;0.60;;;;;;;;;;5033960;28;20049;-70
2021/05/16 00:29:34;;;;;;;1.13;0.68;;;;;;;;;;5034714;28;20045;-70
2021/05/16 00:32:00;;;;;;;1.23;0.75;;;;;;;;;;5018245;28;20053;-70
2021/05/16 00:34:28;;;;;;;1.85;0.60;;;;;;;;;;5034989;28;20053;-70
2021/05/16 00:36:55;;;;;;;2.13;0.57;;;;;;;;;;5035064;28;20079;-70
2021/05/16 00:39:22;;;;;;;4.47;0.73;;;;;;;;;;5035372;28;20045;-70
2021/05/16 00:41:48;;;;;;;1.15;0.73;;;;;;;;;;5035373;28;20049;-70
2021/05/16 00:44:16;;;;;;;1.38;0.60;;;;;;;;;;5034203;28;20099;-70
2021/05/16 00:46:42;;;;;;;2.60;0.70;;;;;;;;;;5016666;28;20084;-70
2021/05/16 00:49:10;;;;;;;2.28;0.70;;;;;;;;;;5035660;28;20046;-70
2021/05/16 00:51:37;;;;;;;2.13;0.90;;;;;;;;;;5034701;28;20100;-70
2021/05/16 00:54:06;;;;;;;2.60;0.77;;;;;;;;;;5033474;28;20045;-70
2021/05/16 00:56:32;;;;;;;2.92;0.70;;;;;;;;;;5016331;28;20420;-69
2021/05/16 00:59:00;;;;;;;3.80;0.93;;;;;;;;;;5033201;28;20072;-70
2021/05/16 01:01:27;;;;;;;3.63;0.60;;;;;;;;;;5035675;28;20107;-69
2021/05/16 01:03:54;;;;;;;2.35;0.98;;;;;;;;;;5033240;28;20107;-70
2021/05/16 01:06:21;;;;;;;2.40;0.90;;;;;;;;;;5016256;28;20463;-70
2021/05/16 01:08:48;;;;;;;2.88;0.65;;;;;;;;;;5035063;28;20095;-70
2021/05/16 01:11:16;;;;;;;3.80;1.00;;;;;;;;;;5034052;28;20053;-70
2021/05/16 01:13:47;;;;;;;1.60;0.70;;;;;;;;;;5017988;28;20543;-70
2021/05/16 01:16:14;;;;;;;2.60;1.15;;;;;;;;;;5018392;28;20104;-71
2021/05/16 01:18:40;;;;;;;3.28;0.80;;;;;;;;;;5032855;28;20095;-70
2021/05/16 01:21:08;;;;;;;1.10;0.80;;;;;;;;;;5033768;28;20111;-70
2021/05/16 01:23:46;;;;;;;2.75;1.08;;;;;;;;;;5033053;28;20050;-71
2021/05/16 01:26:14;;;;;;;2.80;0.60;;;;;;;;;;5039361;28;20131;-71
2021/05/16 01:28:44;;;;;;;2.80;1.30;;;;;;;;;;5036222;28;20073;-70
2021/05/16 01:31:12;;;;;;;3.70;0.90;;;;;;;;;;5036497;28;20048;-70
2021/05/16 01:33:38;;;;;;;3.60;1.02;;;;;;;;;;5053330;28;20049;-70
2021/05/16 01:36:05;;;;;;;2.80;0.77;;;;;;;;;;5035507;28;20049;-70
2021/05/16 01:38:32;;;;;;;2.90;0.88;;;;;;;;;;5051971;28;20045;-70
2021/05/16 01:40:59;;;;;;;3.92;0.75;;;;;;;;;;5053183;28;20052;-70
2021/05/16 01:43:26;;;;;;;1.35;0.68;;;;;;;;;;5053204;28;20102;-70
2021/05/16 01:45:52;;;;;;;2.35;0.88;;;;;;;;;;5051663;28;20389;-70
2021/05/16 01:48:19;;;;;;;1.52;0.60;;;;;;;;;;5052952;28;20052;-70
2021/05/16 01:50:46;;;;;;;2.78;0.75;;;;;;;;;;5051610;28;20106;-70
2021/05/16 01:53:12;;;;;;;1.15;0.65;;;;;;;;;;5046930;28;20045;-70
2021/05/16 01:55:39;;;;;;;3.05;0.90;;;;;;;;;;5032643;28;20079;-70
2021/05/16 01:58:06;;;;;;;3.22;1.00;;;;;;;;;;5031712;28;20049;-70
2021/05/16 02:00:36;;;;;;;1.77;0.68;;;;;;;;;;5032698;28;20115;-70
2021/05/16 02:03:03;;;;;;;1.52;0.80;;;;;;;;;;5031908;28;20058;-70
2021/05/16 02:05:30;;;;;;;3.55;1.02;;;;;;;;;;5032373;28;20103;-70
2021/05/16 02:07:56;;;;;;;1.65;0.70;;;;;;;;;;5031333;28;20103;-70
2021/05/16 02:10:23;;;;;;;2.53;0.82;;;;;;;;;;5031470;28;20107;-70
2021/05/16 02:12:49;;;;;;;2.15;0.90;;;;;;;;;;5032604;28;20050;-70
2021/05/16 02:15:17;;;;;;;1.98;0.95;;;;;;;;;;5035031;28;20099;-71
2021/05/16 02:17:43;;;;;;;1.88;1.15;;;;;;;;;;5052460;28;20339;-70
2021/05/16 02:20:14;;;;;;;1.55;0.80;;;;;;;;;;5052405;28;20049;-70
2021/05/16 02:22:41;;;;;;;2.38;0.80;;;;;;;;;;5033058;28;20045;-70
2021/05/16 02:25:08;;;;;;;2.15;0.98;;;;;;;;;;5014882;28;20420;-70
2021/05/16 02:27:36;;;;;;;4.10;0.90;;;;;;;;;;5014822;28;20095;-70
2021/05/16 02:30:08;;;;;;;2.67;0.80;;;;;;;;;;5030991;28;20563;-70
2021/05/16 02:32:36;;;;;;;1.65;0.80;;;;;;;;;;5016601;28;20099;-70
2021/05/16 02:35:03;;;;;;;1.15;0.60;;;;;;;;;;5050735;28;20056;-70
2021/05/16 02:37:30;;;;;;;4.03;0.75;;;;;;;;;;5017118;28;20072;-70
2021/05/16 02:39:56;;;;;;;2.58;1.23;;;;;;;;;;5031022;28;20045;-70
2021/05/16 02:42:23;;;;;;;2.63;1.00;;;;;;;;;;5032135;28;20053;-70
2021/05/16 02:44:49;;;;;;;1.33;0.60;;;;;;;;;;5031966;28;20049;-70
2021/05/16 02:47:16;;;;;;;1.38;0.80;;;;;;;;;;5039178;28;20057;-70
2021/05/16 02:49:43;;;;;;;1.50;0.90;;;;;;;;;;5051568;28;20500;-70
2021/05/16 02:52:10;;;;;;;2.35;0.82;;;;;;;;;;5050896;28;20110;-71
2021/05/16 02:54:36;;;;;;;2.85;0.98;;;;;;;;;;5051754;28;20114;-71
2021/05/16 02:57:03;;;;;;;1.48;0.85;;;;;;;;;;5051761;28;20088;-70
2021/05/16 02:59:30;;;;;;;1.67;0.80;;;;;;;;;;5051697;28;20416;-71
2021/05/16 03:01:57;;;;;;;4.63;0.80;;;;;;;;;;5033851;28;20048;-71
2021/05/16 03:04:24;;;;;;;3.10;1.10;;;;;;;;;;5051705;28;20140;-71
2021/05/16 03:06:50;;;;;;;2.50;1.20;;;;;;;;;;5051600;28;20045;-71
2021/05/16 03:09:17;;;;;;;2.45;0.90;;;;;;;;;;5035176;28;20488;-71
2021/05/16 03:11:44;;;;;;;2.28;0.90;;;;;;;;;;5050395;28;20512;-71
2021/05/16 03:14:10;;;;;;;2.13;1.10;;;;;;;;;;5051925;28;20073;-71
2021/05/16 03:16:37;;;;;;;1.88;0.80;;;;;;;;;;5030541;28;20049;-71
2021/05/16 03:19:04;;;;;;;3.97;0.88;;;;;;;;;;5030391;28;20080;-71
2021/05/16 03:21:30;;;;;;;3.70;1.35;;;;;;;;;;5031493;28;20471;-70
2021/05/16 03:23:57;;;;;;;3.72;1.27;;;;;;;;;;5031755;28;20057;-71
2021/05/16 03:26:24;;;;;;;5.65;1.30;;;;;;;;;;5030307;28;20049;-71
2021/05/16 03:28:51;;;;;;;3.05;0.85;;;;;;;;;;5036568;28;20052;-70
2021/05/16 03:31:18;;;;;;;1.88;0.85;;;;;;;;;;5050474;28;20048;-70
2021/05/16 03:33:44;;;;;;;1.55;0.90;;;;;;;;;;5031823;28;20076;-70
2021/05/16 03:36:11;;;;;;;2.65;1.20;;;;;;;;;;5051328;28;20103;-71
2021/05/16 03:38:37;;;;;;;1.50;0.90;;;;;;;;;;5031451;28;20045;-71
2021/05/16 03:41:04;;;;;;;3.10;1.10;;;;;;;;;;5029947;28;20045;-70
2021/05/16 03:43:31;;;;;;;3.50;1.02;;;;;;;;;;5031512;28;20049;-71
2021/05/16 03:45:58;;;;;;;2.10;0.80;;;;;;;;;;5035628;28;20053;-72
2021/05/16 03:48:25;;;;;;;3.60;1.20;;;;;;;;;;5029977;28;20053;-71
2021/05/16 03:50:51;;;;;;;2.47;1.10;;;;;;;;;;5014412;28;20057;-70
2021/05/16 03:53:18;;;;;;;2.42;0.80;;;;;;;;;;5031557;28;20053;-70
2021/05/16 03:55:45;;;;;;;2.13;0.90;;;;;;;;;;5029965;28;20073;-70
2021/05/16 03:58:11;;;;;;;2.95;1.05;;;;;;;;;;5030166;28;20087;-70
2021/05/16 04:00:38;;;;;;;2.70;1.15;;;;;;;;;;5029930;28;20054;-69
2021/05/16 04:03:05;;;;;;;3.88;1.00;;;;;;;;;;5013691;28;20095;-72
2021/05/16 04:05:31;;;;;;;3.05;1.00;;;;;;;;;;5031165;28;20073;-72
2021/05/16 04:07:58;;;;;;;3.05;1.10;;;;;;;;;;5030039;28;20046;-71
2021/05/16 04:10:24;;;;;;;4.70;1.23;;;;;;;;;;5031130;28;20041;-71
2021/05/16 04:12:51;;;;;;;2.40;0.90;;;;;;;;;;5031124;28;20053;-71
2021/05/16 04:15:18;;;;;;;2.70;0.90;;;;;;;;;;5029526;28;20076;-71
2021/05/16 04:17:44;;;;;;;4.40;1.00;;;;;;;;;;5029487;28;20500;-71
2021/05/16 04:20:11;;;;;;;2.45;1.30;;;;;;;;;;5031930;28;20638;-71
2021/05/16 04:22:38;;;;;;;4.40;1.05;;;;;;;;;;5034849;28;20049;-72
2021/05/16 04:25:05;;;;;;;4.00;1.10;;;;;;;;;;5017413;28;20093;-71
2021/05/16 04:27:32;;;;;;;1.25;0.98;;;;;;;;;;5033207;28;20049;-72
2021/05/16 04:29:58;;;;;;;3.80;1.08;;;;;;;;;;5033488;28;20053;-72
2021/05/16 04:32:25;;;;;;;2.80;1.00;;;;;;;;;;5034480;28;20060;-71
2021/05/16 04:34:52;;;;;;;3.03;1.00;;;;;;;;;;5033346;28;20562;-72
2021/05/16 04:37:18;;;;;;;3.72;1.02;;;;;;;;;;5033335;28;20416;-71
2021/05/16 04:39:45;;;;;;;5.65;1.05;;;;;;;;;;5034646;28;20045;-71
2021/05/16 04:42:11;;;;;;;2.72;0.90;;;;;;;;;;5033397;28;20049;-71
2021/05/16 04:44:38;;;;;;;2.42;0.90;;;;;;;;;;5034450;28;20053;-71
2021/05/16 04:47:06;;;;;;;2.10;1.15;;;;;;;;;;5034220;28;20053;-71
2021/05/16 04:49:33;;;;;;;1.33;0.93;;;;;;;;;;5033113;28;20084;-71
2021/05/16 04:51:59;;;;;;;5.25;1.40;;;;;;;;;;5034291;28;20554;-72
2021/05/16 04:54:26;;;;;;;4.63;1.20;;;;;;;;;;5033100;28;20053;-70
2021/05/16 04:56:53;;;;;;;3.75;1.33;;;;;;;;;;5033920;28;20056;-69
2021/05/16 04:59:19;;;;;;;4.50;1.10;;;;;;;;;;5032913;28;20192;-70
2021/05/16 05:01:46;;;;;;;1.85;0.90;;;;;;;;;;5033847;28;20107;-70
2021/05/16 05:04:13;;;;;;;2.63;0.98;;;;;;;;;;5034021;28;20698;-70
2021/05/16 05:06:40;;;;;;;1.40;0.93;;;;;;;;;;5033595;28;20096;-70
2021/05/16 05:09:07;;;;;;;1.67;0.98;;;;;;;;;;5032675;28;20046;-70
2021/05/16 05:11:34;;;;;;;2.33;0.82;;;;;;;;;;5033709;28;20092;-70
2021/05/16 05:14:01;;;;;;;1.85;0.90;;;;;;;;;;5012803;28;20046;-70
2021/05/16 05:16:27;;;;;;;2.25;0.90;;;;;;;;;;5012410;28;20111;-71
2021/05/16 05:18:54;;;;;;;2.05;1.35;;;;;;;;;;5036152;28;20049;-70
2021/05/16 05:21:20;;;;;;;2.30;0.85;;;;;;;;;;5053163;28;20099;-71
2021/05/16 05:23:47;;;;;;;1.60;0.70;;;;;;;;;;5052519;28;20136;-70
2021/05/16 05:26:14;;;;;;;4.20;1.00;;;;;;;;;;5035811;28;20522;-71
2021/05/16 05:28:40;;;;;;;1.13;0.80;;;;;;;;;;5052146;28;20049;-70
2021/05/16 05:31:07;;;;;;;5.35;0.98;;;;;;;;;;5053126;28;20106;-71
2021/05/16 05:33:34;;;;;;;1.70;0.77;;;;;;;;;;5053332;28;20392;-71
2021/05/16 05:36:00;;;;;;;3.15;0.73;;;;;;;;;;5051777;28;20504;-71
2021/05/16 05:38:27;;;;;;;3.50;0.95;;;;;;;;;;5052197;28;20049;-71
2021/05/16 05:40:53;;;;;;;1.33;0.88;;;;;;;;;;5051976;28;20118;-71
2021/05/16 05:43:20;;;;;;;2.20;0.90;;;;;;;;;;5035411;28;20500;-70
2021/05/16 05:45:47;;;;;;;1.80;0.57;;;;;;;;;;5052606;28;20057;-70
2021/05/16 05:48:13;;;;;;;1.10;0.80;;;;;;;;;;5051928;28;20072;-71
2021/05/16 05:50:40;;;;;;;2.97;0.60;;;;;;;;;;4957830;28;26719;-71
2021/05/16 05:53:06;;;;;;;2.03;0.70;;;;;;;;;;4760735;28;70503;-71
2021/05/16 05:55:33;;;;;;;1.08;0.50;;;;;;;;;;4866323;28;20502;-70
2021/05/16 05:58:00;;;;;;;3.85;1.27;;;;;;;;;;4992631;28;20050;-72
2021/05/16 06:00:30;;;;;;;2.38;0.60;;;;;;;;;;4976329;28;20420;-71
2021/05/16 06:02:57;;;;;;;1.23;0.70;;;;;;;;;;4993721;28;20058;-71
2021/05/16 06:05:28;;;;;;;1.52;0.65;;;;;;;;;;5008376;28;20078;-71
2021/05/16 06:07:55;;;;;;;1.23;0.60;;;;;;;;;;4983132;28;20084;-70
2021/05/16 06:10:23;;;;;;;3.85;0.80;;;;;;;;;;4998946;28;20039;-71
2021/05/16 06:12:50;;;;;;;2.03;1.10;;;;;;;;;;4975664;28;20058;-71
2021/05/16 06:15:17;;;;;;;5.55;1.17;;;;;;;;;;4972702;28;20085;-69
2021/05/16 06:17:44;;;;;;;3.47;1.10;;;;;;;;;;4988478;28;20061;-69
2021/05/16 06:20:11;;;;;;;1.27;0.70;;;;;;;;;;4972599;28;20047;-69
2021/05/16 06:22:38;;;;;;;4.60;1.20;;;;;;;;;;4989532;28;20062;-70
2021/05/16 06:25:05;;;;;;;1.60;0.93;;;;;;;;;;5008932;28;20082;-72
2021/05/16 06:27:31;;;;;;;8.88;1.40;;;;;;;;;;4977154;28;20078;-72
2021/05/16 06:29:58;;;;;;;1.90;0.88;;;;;;;;;;4992846;28;20042;-73
2021/05/16 06:32:25;;;;;;;3.53;1.67;;;;;;;;;;4995176;28;20136;-72
2021/05/16 06:34:51;;;;;;;5.45;1.38;;;;;;;;;;4978200;28;20493;-71
2021/05/16 06:37:18;;;;;;;4.72;1.83;;;;;;;;;;5002060;28;20116;-72
2021/05/16 06:39:45;;;;;;;9.25;4.70;;;;;;;;;;5011246;28;20116;-72
2021/05/16 06:42:11;;;;;;;8.70;3.67;;;;;;;;;;4993444;28;20560;-72
2021/05/16 06:44:38;;;;;;;10.95;3.85;;;;;;;;;;4993135;28;20074;-71
2021/05/16 06:47:04;;;;;;;11.93;3.85;;;;;;;;;;4976257;28;20077;-71
2021/05/16 06:49:31;;;;;;;4.80;2.10;;;;;;;;;;4993828;28;20112;-71
2021/05/16 06:51:57;;;;;;;2.95;1.13;;;;;;;;;;5001355;28;20053;-71
2021/05/16 06:54:24;;;;;;;5.25;1.27;;;;;;;;;;4998106;28;20053;-72
2021/05/16 06:56:51;;;;;;;2.47;1.00;;;;;;;;;;5028418;28;20104;-73
2021/05/16 06:59:18;;;;;;;0.85;0.60;;;;;;;;;;5009786;28;20501;-72
2021/05/16 07:01:45;;;;;;;1.65;0.70;;;;;;;;;;4994123;28;20107;-72
2021/05/16 07:04:13;;;;;;;2.05;0.73;;;;;;;;;;5011160;28;20046;-71
2021/05/16 07:06:40;;;;;;;1.08;0.40;;;;;;;;;;4993162;28;20088;-71
2021/05/16 07:09:06;;;;;;;1.30;0.90;;;;;;;;;;4992728;28;20077;-72
2021/05/16 07:11:33;;;;;;;2.13;0.57;;;;;;;;;;4995491;28;20054;-71
2021/05/16 07:14:00;;;;;;;3.03;0.70;;;;;;;;;;4995315;28;20054;-71
2021/05/16 07:16:26;;;;;;;1.48;0.40;;;;;;;;;;4994276;28;20050;-70
2021/05/16 07:18:53;;;;;;;1.65;0.80;;;;;;;;;;4993705;28;20059;-72
2021/05/16 07:21:20;;;;;;;3.72;1.15;;;;;;;;;;4979375;28;20043;-72
2021/05/16 07:23:47;;;;;;;3.60;1.00;;;;;;;;;;4978211;28;20082;-72
2021/05/16 07:26:14;;;;;;;2.78;0.68;;;;;;;;;;4980745;28;20553;-73
2021/05/16 07:28:40;;;;;;;5.45;0.77;;;;;;;;;;4980084;28;20113;-71
2021/05/16 07:31:07;;;;;;;1.55;0.50;;;;;;;;;;4981931;28;20098;-70
2021/05/16 07:33:33;;;;;;;2.05;0.82;;;;;;;;;;4996105;28;20082;-72
2021/05/16 07:36:00;;;;;;;3.63;1.75;;;;;;;;;;4984307;28;20054;-71
2021/05/16 07:38:27;;;;;;;5.10;1.50;;;;;;;;;;4978528;28;20066;-71
2021/05/16 07:40:54;;;;;;;2.90;1.00;;;;;;;;;;4975321;28;20312;-71
2021/05/16 07:43:21;;;;;;;2.10;0.80;;;;;;;;;;4976488;28;20057;-70
2021/05/16 07:45:52;;;;;;;2.42;0.75;;;;;;;;;;4985604;28;20141;-70
2021/05/16 07:48:19;;;;;;;1.75;0.57;;;;;;;;;;4991317;28;20058;-71
2021/05/16 07:50:46;;;;;;;3.80;0.98;;;;;;;;;;4990297;28;20074;-70
2021/05/16 07:53:12;;;;;;;1.40;0.77;;;;;;;;;;4992050;28;20465;-71
2021/05/16 07:55:41;;;;;;;1.95;0.63;;;;;;;;;;4995314;28;20054;-71
2021/05/16 07:58:07;;;;;;;4.72;0.70;;;;;;;;;;4995607;28;20193;-71
2021/05/16 08:00:34;;;;;;;1.83;0.70;;;;;;;;;;5013959;28;20046;-72
2021/05/16 08:03:01;;;;;;;3.35;1.55;;;;;;;;;;5015092;28;20050;-71
2021/05/16 08:05:29;;;;;;;1.88;0.52;;;;;;;;;;5013614;28;20050;-71
2021/05/16 08:07:57;;;;;;;1.80;0.98;;;;;;;;;;5015009;28;20123;-71
2021/05/16 08:10:24;;;;;;;5.22;1.58;;;;;;;;;;5028601;28;20508;-71
2021/05/16 08:12:51;;;;;;;1.15;0.80;;;;;;;;;;5018944;28;20092;-71
2021/05/16 08:15:18;;;;;;;3.53;1.30;;;;;;;;;;5011659;28;20050;-71
2021/05/16 08:17:45;;;;;;;2.10;0.95;;;;;;;;;;4995958;28;20101;-71
2021/05/16 08:20:11;;;;;;;3.35;0.80;;;;;;;;;;4996991;28;20046;-71
2021/05/16 08:22:38;;;;;;;2.05;0.73;;;;;;;;;;4994691;28;20101;-73
2021/05/16 08:25:11;;;;;;;2.88;0.70;;;;;;;;;;4992029;28;20060;-71
2021/05/16 08:27:38;;;;;;;4.13;0.80;;;;;;;;;;4997173;28;20489;-71
2021/05/16 08:30:06;;;;;;;2.97;0.52;;;;;;;;;;5011554;28;20105;-72
2021/05/16 08:32:33;;;;;;;3.05;1.33;;;;;;;;;;4996161;28;20051;-71
2021/05/16 08:34:59;;;;;;;2.63;1.00;;;;;;;;;;4990355;28;20058;-68
2021/05/16 08:37:26;;;;;;;2.60;0.60;;;;;;;;;;4980884;28;20603;-68
2021/05/16 08:39:53;;;;;;;2.75;0.73;;;;;;;;;;4988861;28;20046;-70
2021/05/16 08:42:20;;;;;;;1.73;0.52;;;;;;;;;;4987469;28;20109;-70
2021/05/16 08:44:47;;;;;;;1.80;0.50;;;;;;;;;;4992324;28;20062;-70
2021/05/16 08:47:14;;;;;;;1.10;0.40;;;;;;;;;;4981550;28;20502;-70
2021/05/16 08:49:41;;;;;;;1.95;0.50;;;;;;;;;;4975154;28;20069;-70
2021/05/16 08:52:07;;;;;;;1.55;0.32;;;;;;;;;;4989760;28;20433;-70
2021/05/16 08:54:34;;;;;;;1.05;0.95;;;;;;;;;;4990012;28;20051;-70
2021/05/16 08:57:01;;;;;;;1.48;0.52;;;;;;;;;;4982726;28;20043;-70
2021/05/16 08:59:27;;;;;;;2.15;0.70;;;;;;;;;;4982750;28;20117;-70
2021/05/16 09:01:55;;;;;;;1.67;0.68;;;;;;;;;;4981314;28;20552;-71
2021/05/16 09:04:28;;;;;;;2.97;0.77;;;;;;;;;;4982055;28;20054;-71
2021/05/16 09:06:56;;;;;;;3.17;0.80;;;;;;;;;;4984172;28;20165;-70
2021/05/16 09:09:23;;;;;;;3.67;0.70;;;;;;;;;;4980764;28;20451;-71
2021/05/16 09:12:04;;;;;;;2.78;0.80;;;;;;;;;;5013113;28;20069;-70
2021/05/16 09:14:51;;;;;;;5.35;0.88;;;;;;;;;;5002268;28;20494;-71
2021/05/16 09:17:34;;;;;;;1.50;0.50;;;;;;;;;;4974015;28;20058;-70
2021/05/16 09:20:06;;;;;;;1.52;0.80;;;;;;;;;;4973977;28;20051;-71
2021/05/16 09:22:42;;;;;;;0.88;0.50;;;;;;;;;;4990031;28;20054;-70
2021/05/16 09:25:13;;;;;;;2.92;1.13;;;;;;;;;;4975038;28;20050;-71
2021/05/16 09:27:41;;;;;;;2.88;0.80;;;;;;;;;;4989518;28;20544;-70
2021/05/16 09:30:17;;;;;;;3.10;1.10;;;;;;;;;;4974828;28;20050;-70
2021/05/16 09:32:47;;;;;;;4.00;0.80;;;;;;;;;;4974770;28;20062;-70
2021/05/16 09:35:14;;;;;;;2.42;0.65;;;;;;;;;;5019144;28;20050;-70
2021/05/16 09:38:05;;;;;;;3.28;0.77;;;;;;;;;;5012169;28;20045;-70
2021/05/16 09:40:41;;;;;;;2.70;0.80;;;;;;;;;;5012160;28;20057;-71
2021/05/16 09:43:08;;;;;;;7.13;1.00;;;;;;;;;;5028954;28;20058;-71
2021/05/16 09:45:47;;;;;;;4.13;1.20;;;;;;;;;;5013076;28;20054;-71
2021/05/16 09:48:28;;;;;;;2.83;0.57;;;;;;;;;;5011542;28;20073;-71
2021/05/16 09:51:16;;;;;;;3.33;1.02;;;;;;;;;;4993010;28;20043;-71
2021/05/16 09:53:45;;;;;;;3.58;0.85;;;;;;;;;;4994614;28;20498;-71
2021/05/16 09:56:36;;;;;;;3.63;0.85;;;;;;;;;;4993689;28;20093;-71
2021/05/16 09:59:07;;;;;;;3.70;0.80;;;;;;;;;;4994101;28;20117;-71
2021/05/16 10:01:35;;;;;;;3.60;0.80;;;;;;;;;;4993097;28;20050;-70
2021/05/16 10:04:02;;;;;;;4.07;0.90;;;;;;;;;;4992075;28;20050;-70
2021/05/16 10:06:30;;;;;;;3.13;0.70;;;;;;;;;;4993131;28;20050;-72
2021/05/16 10:08:56;;;;;;;6.45;1.00;;;;;;;;;;4994245;28;20046;-70
2021/05/16 10:11:25;;;;;;;2.97;0.75;;;;;;;;;;4970923;28;20047;-70
2021/05/16 10:13:53;;;;;;;6.85;1.23;;;;;;;;;;4974915;28;20109;-70
2021/05/16 10:16:21;;;;;;;5.95;0.90;;;;;;;;;;4980863;28;20046;-70
2021/05/16 10:18:49;;;;;;;4.03;0.90;;;;;;;;;;4971325;28;20047;-70
2021/05/16 10:21:16;;;;;;;3.88;0.98;;;;;;;;;;4964157;28;20047;-70
2021/05/16 10:23:43;;;;;;;4.75;1.08;;;;;;;;;;4981017;28;20138;-70
2021/05/16 10:26:21;;;;;;;4.30;0.95;;;;;;;;;;4978198;28;20458;-70
2021/05/16 10:29:11;;;;;;;3.70;0.98;;;;;;;;;;4968484;28;20053;-71
2021/05/16 10:31:40;;;;;;;5.38;1.23;;;;;;;;;;4974829;28;20046;-71
2021/05/16 10:34:25;;;;;;;3.95;0.85;;;;;;;;;;4983031;28;20129;-70
2021/05/16 10:36:55;;;;;;;3.95;0.90;;;;;;;;;;4979856;28;20121;-70
2021/05/16 10:39:44;;;;;;;4.10;0.98;;;;;;;;;;4969263;28;20043;-70
2021/05/16 10:42:15;;;;;;;2.42;0.63;;;;;;;;;;4991766;28;20046;-70
2021/05/16 10:45:15;;;;;;;3.08;0.70;;;;;;;;;;5003255;28;20092;-71
2021/05/16 10:47:49;;;;;;;4.63;1.30;;;;;;;;;;4963349;28;20488;-70
2021/05/16 10:50:18;;;;;;;1.98;0.60;;;;;;;;;;4992782;28;20050;-70
2021/05/16 10:53:19;;;;;;;2.67;0.60;;;;;;;;;;4992578;28;20058;-71
2021/05/16 10:55:50;;;;;;;2.40;0.85;;;;;;;;;;5007228;28;20132;-69
2021/05/16 10:58:32;;;;;;;2.92;0.70;;;;;;;;;;5007845;28;20092;-70
2021/05/16 11:01:13;;;;;;;5.53;0.85;;;;;;;;;;4992576;28;20556;-71
2021/05/16 11:03:52;;;;;;;2.67;0.73;;;;;;;;;;5007387;28;20096;-70
2021/05/16 11:06:24;;;;;;;4.07;1.15;;;;;;;;;;4991740;28;20497;-71
2021/05/16 11:08:51;;;;;;;2.95;0.63;;;;;;;;;;5008543;28;20050;-71
2021/05/16 11:11:40;;;;;;;2.38;0.70;;;;;;;;;;4992527;28;20050;-71
2021/05/16 11:14:18;;;;;;;3.28;0.80;;;;;;;;;;4991376;28;20054;-72
2021/05/16 11:16:53;;;;;;;1.73;0.70;;;;;;;;;;4980122;28;20777;-70
2021/05/16 11:19:21;;;;;;;2.45;1.00;;;;;;;;;;4987286;28;20054;-71
2021/05/16 11:21:47;;;;;;;3.15;0.73;;;;;;;;;;4979297;28;20624;-71
2021/05/16 11:24:16;;;;;;;4.30;1.05;;;;;;;;;;4977917;28;20096;-75
2021/05/16 11:26:43;;;;;;;6.03;1.20;;;;;;;;;;4981407;28;20105;-71
2021/05/16 11:29:10;;;;;;;7.43;0.90;;;;;;;;;;4966312;28;20050;-71
2021/05/16 11:31:37;;;;;;;2.88;1.00;;;;;;;;;;4985907;28;20062;-71
2021/05/16 11:34:05;;;;;;;2.63;0.73;;;;;;;;;;4971583;28;20413;-70
2021/05/16 11:36:34;;;;;;;2.47;0.60;;;;;;;;;;4987125;28;20133;-73
2021/05/16 11:39:04;;;;;;;5.00;1.30;;;;;;;;;;4982268;28;20046;-72
2021/05/16 11:41:41;;;;;;;3.40;0.90;;;;;;;;;;4992266;28;20043;-68
2021/05/16 11:44:09;;;;;;;0.73;0.50;;;;;;;;;;4984278;28;20057;-70
2021/05/16 11:46:41;;;;;;;5.43;0.70;;;;;;;;;;4964199;28;20395;-70
2021/05/16 11:49:09;;;;;;;3.33;0.70;;;;;;;;;;5010573;28;20140;-69
2021/05/16 11:51:36;;;;;;;2.72;0.68;;;;;;;;;;4974237;28;20544;-70
2021/05/16 11:54:10;;;;;;;3.20;0.57;;;;;;;;;;4993063;28;20054;-69
2021/05/16 11:56:40;;;;;;;3.67;1.10;;;;;;;;;;4975371;28;20065;-70
2021/05/16 11:59:06;;;;;;;3.45;0.90;;;;;;;;;;4982413;28;20050;-70
2021/05/16 12:01:35;;;;;;;2.55;0.98;;;;;;;;;;4974746;28;20047;-69
2021/05/16 12:04:11;;;;;;;2.35;0.77;;;;;;;;;;4967835;28;20106;-70
2021/05/16 12:06:41;;;;;;;1.50;0.70;;;;;;;;;;4987666;28;20054;-70
2021/05/16 12:09:10;;;;;;;1.60;0.55;;;;;;;;;;4982216;28;20106;-70
2021/05/16 12:11:38;;;;;;;1.13;0.52;;;;;;;;;;4981210;28;20042;-70
2021/05/16 12:14:06;;;;;;;3.00;0.90;;;;;;;;;;5005323;28;20057;-70
2021/05/16 12:16:34;;;;;;;3.13;0.77;;;;;;;;;;5030407;28;20082;-70
2021/05/16 12:19:00;;;;;;;2.53;0.60;;;;;;;;;;4998097;28;20058;-70
2021/05/16 12:21:27;;;;;;;0.77;0.28;;;;;;;;;;5015071;28;20197;-70
2021/05/16 12:24:00;;;;;;;3.80;0.75;;;;;;;;;;5015210;28;20123;-70
2021/05/16 12:26:27;;;;;;;1.58;0.68;;;;;;;;;;5015091;28;20089;-70
2021/05/16 12:28:55;;;;;;;3.00;0.75;;;;;;;;;;5022439;28;20058;-70
2021/05/16 12:31:22;;;;;;;2.45;0.68;;;;;;;;;;4994171;28;20509;-70
2021/05/16 12:33:51;;;;;;;4.22;1.00;;;;;;;;;;4994121;28;20108;-70
2021/05/16 12:36:17;;;;;;;2.58;0.80;;;;;;;;;;4994140;28;20085;-70
2021/05/16 12:38:51;;;;;;;2.88;0.82;;;;;;;;;;4994161;28;20108;-70
2021/05/16 12:41:28;;;;;;;2.25;0.80;;;;;;;;;;5009072;28;20490;-69
2021/05/16 12:44:24;;;;;;;1.65;1.00;;;;;;;;;;5012225;28;20050;-70
2021/05/16 12:46:52;;;;;;;3.40;0.63;;;;;;;;;;5029463;28;20058;-70
2021/05/16 12:49:22;;;;;;;2.65;0.63;;;;;;;;;;4997199;28;20578;-70
2021/05/16 12:52:07;;;;;;;1.35;0.60;;;;;;;;;;5029463;28;20077;-69
2021/05/16 12:54:37;;;;;;;3.13;0.80;;;;;;;;;;5031953;28;20088;-70
2021/05/16 12:57:13;;;;;;;3.42;0.77;;;;;;;;;;5029733;28;20111;-70
2021/05/16 12:59:41;;;;;;;2.95;0.80;;;;;;;;;;5029205;28;20415;-70
2021/05/16 13:02:13;;;;;;;2.60;1.05;;;;;;;;;;5014890;28;20050;-69
2021/05/16 13:04:54;;;;;;;7.05;1.02;;;;;;;;;;5013048;28;20124;-69
2021/05/16 13:07:49;;;;;;;2.72;0.70;;;;;;;;;;5012952;28;20147;-69
2021/05/16 13:10:36;;;;;;;1.77;0.90;;;;;;;;;;5013128;28;20161;-69
2021/05/16 13:13:10;;;;;;;3.20;0.70;;;;;;;;;;5014012;28;20472;-69
2021/05/16 13:15:42;;;;;;;2.70;0.77;;;;;;;;;;5012444;28;20520;-70
2021/05/16 13:18:20;;;;;;;2.85;0.60;;;;;;;;;;5014266;28;20054;-69
2021/05/16 13:20:47;;;;;;;2.92;0.80;;;;;;;;;;5013811;28;20054;-70
2021/05/16 13:23:19;;;;;;;2.90;0.90;;;;;;;;;;5012900;28;20081;-69
2021/05/16 13:25:47;;;;;;;5.00;1.02;;;;;;;;;;5028555;28;20053;-69
2021/05/16 13:28:20;;;;;;;4.90;1.38;;;;;;;;;;5012072;28;20050;-70
2021/05/16 13:30:54;;;;;;;3.13;1.13;;;;;;;;;;5012520;28;20111;-70
2021/05/16 13:33:29;;;;;;;1.75;0.68;;;;;;;;;;5012649;28;20085;-70
2021/05/16 13:35:55;;;;;;;4.30;1.10;;;;;;;;;;5028370;28;20045;-69
2021/05/16 13:38:22;;;;;;;4.88;1.15;;;;;;;;;;5028812;28;20084;-69
2021/05/16 13:40:49;;;;;;;3.15;0.90;;;;;;;;;;5013461;28;20084;-69
2021/05/16 13:43:16;;;;;;;4.03;1.02;;;;;;;;;;4999681;28;20053;-70
2021/05/16 13:45:43;;;;;;;2.15;1.00;;;;;;;;;;4992870;28;20469;-68
2021/05/16 13:48:09;;;;;;;4.07;1.00;;;;;;;;;;4981517;28;20055;-69
2021/05/16 13:50:36;;;;;;;5.57;2.08;;;;;;;;;;4975689;28;20046;-69
2021/05/16 13:53:02;;;;;;;3.20;0.90;;;;;;;;;;4981592;28;20097;-68
2021/05/16 13:55:29;;;;;;;3.22;0.85;;;;;;;;;;4974357;28;20081;-69
2021/05/16 13:57:58;;;;;;;3.10;0.85;;;;;;;;;;4980596;28;20047;-69
2021/05/16 14:00:25;;;;;;;6.80;2.35;;;;;;;;;;4981178;28;20055;-69
2021/05/16 14:02:51;;;;;;;4.10;1.20;;;;;;;;;;4982247;28;20054;-69
2021/05/16 14:05:19;;;;;;;4.05;1.60;;;;;;;;;;4979840;28;20042;-73
2021/05/16 14:07:46;;;;;;;5.75;1.30;;;;;;;;;;4977392;28;20054;-71
2021/05/16 14:10:13;;;;;;;2.80;1.10;;;;;;;;;;4980126;28;20058;-72
2021/05/16 14:12:43;;;;;;;3.90;0.93;;;;;;;;;;4979985;28;20038;-71
2021/05/16 14:15:10;;;;;;;2.45;1.15;;;;;;;;;;4970953;28;20085;-71
2021/05/16 14:17:37;;;;;;;4.88;1.10;;;;;;;;;;4980405;28;20101;-72
2021/05/16 14:20:07;;;;;;;2.35;0.98;;;;;;;;;;4985053;28;20055;-72
2021/05/16 14:22:36;;;;;;;4.30;1.33;;;;;;;;;;4964418;28;20078;-72
2021/05/16 14:25:04;;;;;;;2.53;0.88;;;;;;;;;;4988921;28;20494;-71
2021/05/16 14:27:32;;;;;;;2.38;0.88;;;;;;;;;;4979743;28;20046;-71
2021/05/16 14:30:00;;;;;;;1.73;0.65;;;;;;;;;;4982300;28;20121;-70
2021/05/16 14:32:26;;;;;;;4.50;0.90;;;;;;;;;;4978534;28;20101;-70
2021/05/16 14:34:53;;;;;;;2.47;1.00;;;;;;;;;;4979125;28;20086;-71
2021/05/16 14:37:20;;;;;;;4.25;1.00;;;;;;;;;;4961095;28;20465;-71
2021/05/16 14:39:46;;;;;;;2.45;0.70;;;;;;;;;;4983719;28;20077;-71
2021/05/16 14:42:13;;;;;;;3.92;0.80;;;;;;;;;;4982901;28;20047;-72
2021/05/16 14:44:40;;;;;;;3.08;0.95;;;;;;;;;;4955111;28;20081;-72
2021/05/16 14:47:07;;;;;;;4.43;0.82;;;;;;;;;;4974980;28;20046;-71
2021/05/16 14:49:34;;;;;;;4.22;1.00;;;;;;;;;;4954039;28;20054;-73
2021/05/16 15:11:02;;;;;;;3.22;0.70;;;;;;;;;;4985146;28;20133;-71